KPTT

Pratt Regional Airport

Pratt, Kansas, USA
METAR KPTT 160555Z AUTO 12004KT 10SM CLR 22/19 A2998 RMK AO2 T02230188 10281 20212 402920185
Observed Flight Rules
Aug-16 @ 05:55 UTC (21 minutes ago) Visual Flight Rules
Wind Visibility Clouds
120° at 4 knots 10 miles
  • Clear skies
Temperatures Readings
Current 22°C / 72°F
Dewpoint 19°C / 66°F
Humidity 83%
Altimeter 29.98" Hg
Pressure 1015 hPa
Elevation 595
METAR KPTT 160555Z AUTO 12004KT 10SM CLR 22/19 A2998 RMK AO2 T02230188 10281 20212 402920185
Observed Flight Rules
Aug-16 @ 05:55 UTC
(21 minutes ago)
VFR
Wind Visibility
120° at 4 knots 10 miles
Clouds
  • Clear skies
Temperature Dewpoint
22°C / 72°F 19°C / 66°F
Humidity Altimeter Pressure
83% 29.98" Hg 1015 hPa